Logo AVAMET
Benvolgut visitant, si us plau, ingressa Recuperar contrasenya

Elx Ferriol

Dades diàries. Acumulats / Últims 30 dies disponibles

Data Temperatura (°C) Humitat rel. (%) Pressió rel. (hPa) Vent (km/h) Precipitació
Mínima Mitjana Màxima Amplitud
tèrmica
Mínima Mitjana Màxima Mínima Mitjana Màxima Predom. Mitjana Ràfega
màxima
Total
(mm)
Índex-n
Mínima Mitjana Màxima Mínima Mitjana Màxima n
0 a 1
P0 max
mm 5'
Dades mensuals acumulades fins l'últim dia disponible
12/2019 9,1 10,1 11,6 13,2 13,3 16,4 19,2 10,1 45 78 97 1.003 1.015 1.024   41,0 35,1
Dades anuals acumulades fins l'últim dia disponible
2019 2,2 14,2 25,9 19,0 12,7 23,8 39,4 37,2 14 63 99 995 1.016 1.033   8,4 63,0 414,3
Últims 30 dies disponibles
08-12-2019 9,1     14,2     19,2 10,1 45 70 94 1.021 1.023 1.024 41,0 0,0
07-12-2019 9,2     13,2     17,3 8,1 59 77 94 1.021 1.023 1.024 22,0 0,0
06-12-2019 10,1     13,7     17,2 7,1 61 77 93 1.020 1.022 1.023 23,0 0,0
05-12-2019 9,4     12,7     16,0 6,6 72 84 95 1.009 1.015 1.021 22,0 0,0
04-12-2019 10,4     11,8     13,3 2,9 72 84 95 1.003 1.006 1.009 36,0 10,2 0,37 0,60
03-12-2019 9,4     11,3     13,3 3,9 71 84 97 1.008 1.012 1.015 35,0 14,2 0,51 0,70
02-12-2019 11,2     13,6     15,9 4,7 69 83 97 1.010 1.013 1.015 30,0 10,7 0,51 0,80
01-12-2019 11,6     15,3     19,0 7,4 49 70 91 1.010 1.012 1.014 26,0 0,0
30-11-2019 11,9     16,4     20,8 8,9 54 74 94 1.014 1.018 1.021 30,0 0,0
29-11-2019 14,0     17,4     20,7 6,7 55 62 69 1.016 1.018 1.020 35,0 0,0
28-11-2019 11,2     15,6     19,9 8,7 48 61 74 1.014 1.016 1.018 39,0 0,0
27-11-2019 13,2     17,6     22,0 8,8 39 59 78 1.009 1.012 1.015 32,0 0,0
26-11-2019 11,9     17,0     22,1 10,2 50 67 83 1.011 1.014 1.016 27,0 0,0
25-11-2019 11,2     16,1     21,1 9,9 53 66 78 1.012 1.014 1.016 31,0 0,0
24-11-2019 9,9     12,8     15,7 5,8 43 55 66 1.008 1.011 1.014 51,0 0,0
23-11-2019 10,0     12,9     15,9 5,9 43 71 98 995 1.001 1.007 51,0 0,3
22-11-2019 8,9     11,1     13,3 4,4 86 92 98 996 1.002 1.008 21,0 9,4 0,36 0,60
21-11-2019 9,3     12,8     16,3 7,0 63 79 94 1.008 1.009 1.010 20,0 1,0
20-11-2019 7,7     11,6     15,4 7,7 49 72 95 1.010 1.013 1.015 24,0 1,3
19-11-2019 6,6     11,1     15,5 8,9 41 56 70 1.014 1.016 1.017 31,0 0,0
18-11-2019 8,6     12,1     15,6 7,0 45 69 92 1.006 1.011 1.016 33,0 5,3 0,33 0,70
17-11-2019 5,1     11,1     17,1 12,0 38 59 79 1.009 1.012 1.015 38,0 0,5
16-11-2019 6,7     10,7     14,6 7,9 40 55 69 1.006 1.011 1.015 48,0 0,0
15-11-2019 8,7     11,1     13,5 4,8 42 55 68 1.001 1.004 1.006 40,0 0,0
14-11-2019 7,7     11,9     16,2 8,5 45 71 97 1.001 1.006 1.011 39,0 0,5
13-11-2019 12,0     16,9     21,9 9,9 36 63 90 1.006 1.010 1.013 48,0 0,0
12-11-2019 9,6     13,8     18,1 8,5 32 49 66 1.010 1.012 1.013 40,0 0,0
11-11-2019 8,1     12,2     16,3 8,2 41 55 68 1.011 1.013 1.015 40,0 0,0
10-11-2019 9,9     12,6     15,2 5,3 39 58 77 1.011 1.013 1.014 55,0 0,0
09-11-2019 10,6     14,9     19,2 8,6 27 51 74 1.014 1.017 1.020 46,0 0,0
Últims 13 mesos disponibles
11/2019 5,1 11,2 19,1 15,0 13,3 18,9 26,9 21,8 48 61 92 1.001 1.011 1.018 55,0 18,3
10/2019 10,7 15,7 18,7 20,3 15,4 24,9 33,4 22,7 48 69 91 1.009 1.017 1.022 46,0 26,2
09/2019 14,9 19,4 22,6 23,5 21,1 27,7 32,2 17,3 56 74 84 1.011 1.017 1.021 E 0,3 49,0 129,1
08/2019 19,1 21,7 25,9 26,8 27,7 31,9 39,4 20,3 43 66 77 1.011 1.016 1.019 38,0 36,6
07/2019 19,5 21,9 25,4 27,2 28,8 32,6 36,9 17,4 35 58 74 1.006 1.014 1.020 40,0 0,0
06/2019 13,7 17,7 22,6 23,2 23,4 28,7 35,8 22,1 41 59 76 1.010 1.015 1.022 SSE 0,2 45,0 0,3
05/2019 11,1 14,0 19,3 18,9 19,5 23,8 30,3 19,2 53 65 79 1.006 1.015 1.024 50,0 1,6
04/2019 7,8 11,3 15,1 15,6 13,7 19,9 28,7 20,9 42 65 88 1.002 1.013 1.025 63,0 148,7
03/2019 5,6 9,3 12,6 14,6 13,6 19,9 27,4 21,8 33 57 85 1.012 1.022 1.029 39,0 15,5
02/2019 4,1 7,8 12,3 13,0 13,5 18,2 25,1 21,0 35 59 77 999 1.024 1.032 55,0 0,8
01/2019 2,2 7,2 12,4 11,9 12,7 16,6 21,1 18,9 37 56 77 1.006 1.019 1.030 51,0 2,1
12/2018 6,3 9,8 15,2 14,2 14,6 18,7 25,1 18,8 46 63 82 1.021 1.026 1.031 46,0
11/2018 7,0 11,3 14,8 15,1 13,8 18,9 23,1 16,1 42 67 87 1.001 1.015 1.022 56,0 38,2
Tots els anys disponibles
2018 2,7 14,4 26,0 19,1 9,4 23,7 36,6 33,9 37 64 90 994 1.015 1.033 65,0 230,4
Temperatura (°C)
Humitat relativa (%)
Velocitat del vent i ràfega màxima (km/h)
Direcció del vent (°)
Pressió (hPa)
Precipitació (mm)
Nota sobre les dades: s'avisa a l'usuari de la provisionalitat i no oficialitat d'aquestes dades
Logo AVAMET blanc
Web allotjada a Sollutia
Llicència de Creative CommonsLa web d'AVAMET i els seus continguts estan subjectes a una llicència de
Reconeixement - No Comercial - Compartir igual
Últimes estacions: Aielo de Malferit - Centre (Soci), Faura (Inforatge), Benifairó de les Valls (Inforatge), Xàbia - Les Valls (Soci), Xàbia - Alt de la Granadella (Soci), Villena - Sierra de Salinas (Soci), Sueca - Centre (Inforatge) - - -